sensor_id;sensor_type;location;lat;lon;timestamp;P1;durP1;ratioP1;P2;durP2;ratioP2
29730;SDS011;16639;51.488;0.152;2023-10-13T00:00:41;3.78;;;2.03;;
29730;SDS011;16639;51.488;0.152;2023-10-13T00:03:09;4.70;;;1.98;;
29730;SDS011;16639;51.488;0.152;2023-10-13T00:05:42;3.35;;;2.00;;
29730;SDS011;16639;51.488;0.152;2023-10-13T00:08:11;2.60;;;1.77;;
29730;SDS011;16639;51.488;0.152;2023-10-13T00:10:41;4.60;;;2.00;;
29730;SDS011;16639;51.488;0.152;2023-10-13T00:13:09;2.67;;;2.08;;
29730;SDS011;16639;51.488;0.152;2023-10-13T00:15:43;7.38;;;1.90;;
29730;SDS011;16639;51.488;0.152;2023-10-13T00:18:28;4.32;;;1.90;;
29730;SDS011;16639;51.488;0.152;2023-10-13T00:21:08;3.60;;;2.17;;
29730;SDS011;16639;51.488;0.152;2023-10-13T00:23:40;3.00;;;2.05;;
29730;SDS011;16639;51.488;0.152;2023-10-13T00:26:34;7.22;;;1.67;;
29730;SDS011;16639;51.488;0.152;2023-10-13T00:29:03;1.75;;;1.50;;
29730;SDS011;16639;51.488;0.152;2023-10-13T00:31:37;6.80;;;2.10;;
29730;SDS011;16639;51.488;0.152;2023-10-13T00:36:59;4.03;;;1.33;;
29730;SDS011;16639;51.488;0.152;2023-10-13T00:39:44;2.13;;;0.93;;
29730;SDS011;16639;51.488;0.152;2023-10-13T00:42:12;1.60;;;0.90;;
29730;SDS011;16639;51.488;0.152;2023-10-13T00:44:47;1.33;;;1.00;;
29730;SDS011;16639;51.488;0.152;2023-10-13T00:47:16;4.68;;;1.15;;
29730;SDS011;16639;51.488;0.152;2023-10-13T00:50:05;2.92;;;0.80;;
29730;SDS011;16639;51.488;0.152;2023-10-13T00:52:37;1.73;;;0.85;;
29730;SDS011;16639;51.488;0.152;2023-10-13T00:55:09;2.28;;;1.00;;
29730;SDS011;16639;51.488;0.152;2023-10-13T00:57:38;2.72;;;1.17;;
29730;SDS011;16639;51.488;0.152;2023-10-13T01:00:07;1.35;;;0.73;;
29730;SDS011;16639;51.488;0.152;2023-10-13T01:02:55;1.98;;;1.20;;
29730;SDS011;16639;51.488;0.152;2023-10-13T01:05:23;1.83;;;0.95;;
29730;SDS011;16639;51.488;0.152;2023-10-13T01:07:52;3.55;;;0.93;;
29730;SDS011;16639;51.488;0.152;2023-10-13T01:10:21;1.35;;;1.13;;
29730;SDS011;16639;51.488;0.152;2023-10-13T01:12:54;5.38;;;1.40;;
29730;SDS011;16639;51.488;0.152;2023-10-13T01:15:22;0.82;;;0.73;;
29730;SDS011;16639;51.488;0.152;2023-10-13T01:17:49;2.47;;;0.80;;
29730;SDS011;16639;51.488;0.152;2023-10-13T01:20:17;2.60;;;0.70;;
29730;SDS011;16639;51.488;0.152;2023-10-13T01:22:48;1.00;;;0.65;;
29730;SDS011;16639;51.488;0.152;2023-10-13T01:25:22;1.85;;;0.70;;
29730;SDS011;16639;51.488;0.152;2023-10-13T01:27:54;5.72;;;1.08;;
29730;SDS011;16639;51.488;0.152;2023-10-13T01:30:22;1.38;;;0.68;;
29730;SDS011;16639;51.488;0.152;2023-10-13T01:32:53;1.85;;;0.95;;
29730;SDS011;16639;51.488;0.152;2023-10-13T01:35:21;1.15;;;0.82;;
29730;SDS011;16639;51.488;0.152;2023-10-13T01:38:03;1.75;;;1.02;;
29730;SDS011;16639;51.488;0.152;2023-10-13T01:40:31;1.30;;;0.95;;
29730;SDS011;16639;51.488;0.152;2023-10-13T01:43:01;5.65;;;1.15;;
29730;SDS011;16639;51.488;0.152;2023-10-13T01:45:31;7.55;;;1.90;;
29730;SDS011;16639;51.488;0.152;2023-10-13T01:47:58;11.40;;;2.05;;
29730;SDS011;16639;51.488;0.152;2023-10-13T01:50:28;8.65;;;2.95;;
29730;SDS011;16639;51.488;0.152;2023-10-13T01:52:57;7.30;;;2.90;;
29730;SDS011;16639;51.488;0.152;2023-10-13T01:55:42;11.00;;;4.85;;
29730;SDS011;16639;51.488;0.152;2023-10-13T01:58:14;18.02;;;4.93;;
29730;SDS011;16639;51.488;0.152;2023-10-13T02:00:42;18.50;;;6.22;;
29730;SDS011;16639;51.488;0.152;2023-10-13T02:03:11;23.65;;;5.05;;
29730;SDS011;16639;51.488;0.152;2023-10-13T02:05:46;16.33;;;6.00;;
29730;SDS011;16639;51.488;0.152;2023-10-13T02:08:18;10.13;;;5.30;;
29730;SDS011;16639;51.488;0.152;2023-10-13T02:10:53;12.43;;;5.35;;
29730;SDS011;16639;51.488;0.152;2023-10-13T02:13:22;14.07;;;6.43;;
29730;SDS011;16639;51.488;0.152;2023-10-13T02:15:54;21.90;;;5.88;;
29730;SDS011;16639;51.488;0.152;2023-10-13T02:18:31;14.73;;;6.00;;
29730;SDS011;16639;51.488;0.152;2023-10-13T02:21:08;16.95;;;6.60;;
29730;SDS011;16639;51.488;0.152;2023-10-13T02:23:41;17.33;;;6.35;;
29730;SDS011;16639;51.488;0.152;2023-10-13T02:26:12;14.75;;;6.35;;
29730;SDS011;16639;51.488;0.152;2023-10-13T02:28:54;13.93;;;5.93;;
29730;SDS011;16639;51.488;0.152;2023-10-13T02:31:26;15.07;;;6.55;;
29730;SDS011;16639;51.488;0.152;2023-10-13T02:33:54;17.48;;;5.95;;
29730;SDS011;16639;51.488;0.152;2023-10-13T02:36:22;11.57;;;5.95;;
29730;SDS011;16639;51.488;0.152;2023-10-13T02:38:51;13.05;;;6.13;;
29730;SDS011;16639;51.488;0.152;2023-10-13T02:41:19;15.25;;;6.82;;
29730;SDS011;16639;51.488;0.152;2023-10-13T02:43:56;12.20;;;5.80;;
29730;SDS011;16639;51.488;0.152;2023-10-13T02:46:23;15.73;;;6.15;;
29730;SDS011;16639;51.488;0.152;2023-10-13T02:48:55;17.17;;;7.47;;
29730;SDS011;16639;51.488;0.152;2023-10-13T02:51:25;13.93;;;7.10;;
29730;SDS011;16639;51.488;0.152;2023-10-13T02:54:05;13.20;;;7.07;;
29730;SDS011;16639;51.488;0.152;2023-10-13T02:56:53;11.75;;;6.07;;
29730;SDS011;16639;51.488;0.152;2023-10-13T02:59:24;16.45;;;6.72;;
29730;SDS011;16639;51.488;0.152;2023-10-13T03:02:22;16.83;;;7.20;;
29730;SDS011;16639;51.488;0.152;2023-10-13T03:04:54;23.50;;;7.25;;
29730;SDS011;16639;51.488;0.152;2023-10-13T03:07:40;12.05;;;6.47;;
29730;SDS011;16639;51.488;0.152;2023-10-13T03:10:10;22.23;;;8.93;;
29730;SDS011;16639;51.488;0.152;2023-10-13T03:12:39;24.90;;;8.27;;
29730;SDS011;16639;51.488;0.152;2023-10-13T03:15:07;19.10;;;8.23;;
29730;SDS011;16639;51.488;0.152;2023-10-13T03:17:49;28.77;;;10.13;;
29730;SDS011;16639;51.488;0.152;2023-10-13T03:20:17;14.85;;;6.78;;
29730;SDS011;16639;51.488;0.152;2023-10-13T03:22:59;33.05;;;8.98;;
29730;SDS011;16639;51.488;0.152;2023-10-13T03:25:30;26.15;;;8.73;;
29730;SDS011;16639;51.488;0.152;2023-10-13T03:28:04;28.73;;;8.70;;
29730;SDS011;16639;51.488;0.152;2023-10-13T03:30:32;22.73;;;8.20;;
29730;SDS011;16639;51.488;0.152;2023-10-13T03:33:03;24.23;;;8.35;;
29730;SDS011;16639;51.488;0.152;2023-10-13T03:35:34;24.20;;;8.73;;
29730;SDS011;16639;51.488;0.152;2023-10-13T03:38:20;21.50;;;8.80;;
29730;SDS011;16639;51.488;0.152;2023-10-13T03:40:53;33.65;;;9.63;;
29730;SDS011;16639;51.488;0.152;2023-10-13T03:43:36;25.23;;;9.93;;
29730;SDS011;16639;51.488;0.152;2023-10-13T03:46:12;35.33;;;10.52;;
29730;SDS011;16639;51.488;0.152;2023-10-13T03:48:40;26.48;;;11.02;;
29730;SDS011;16639;51.488;0.152;2023-10-13T03:51:19;30.25;;;9.93;;
29730;SDS011;16639;51.488;0.152;2023-10-13T03:53:46;29.67;;;9.70;;
29730;SDS011;16639;51.488;0.152;2023-10-13T03:56:25;26.27;;;10.18;;
29730;SDS011;16639;51.488;0.152;2023-10-13T03:58:58;42.28;;;11.95;;
29730;SDS011;16639;51.488;0.152;2023-10-13T04:01:41;29.60;;;11.43;;
29730;SDS011;16639;51.488;0.152;2023-10-13T04:04:15;37.28;;;12.18;;
29730;SDS011;16639;51.488;0.152;2023-10-13T04:07:16;25.10;;;10.68;;
29730;SDS011;16639;51.488;0.152;2023-10-13T04:09:52;29.85;;;10.55;;
29730;SDS011;16639;51.488;0.152;2023-10-13T04:12:40;29.90;;;10.77;;
29730;SDS011;16639;51.488;0.152;2023-10-13T04:15:42;33.30;;;11.40;;
29730;SDS011;16639;51.488;0.152;2023-10-13T04:18:30;34.65;;;11.63;;
29730;SDS011;16639;51.488;0.152;2023-10-13T04:21:16;24.83;;;10.88;;
29730;SDS011;16639;51.488;0.152;2023-10-13T04:24:10;34.33;;;11.60;;
29730;SDS011;16639;51.488;0.152;2023-10-13T04:26:44;31.88;;;11.07;;
29730;SDS011;16639;51.488;0.152;2023-10-13T04:29:30;30.27;;;11.68;;
29730;SDS011;16639;51.488;0.152;2023-10-13T04:32:12;24.20;;;9.55;;
29730;SDS011;16639;51.488;0.152;2023-10-13T04:34:56;23.85;;;10.75;;
29730;SDS011;16639;51.488;0.152;2023-10-13T04:37:39;23.80;;;9.82;;
29730;SDS011;16639;51.488;0.152;2023-10-13T04:40:25;29.07;;;11.40;;
29730;SDS011;16639;51.488;0.152;2023-10-13T04:42:53;31.45;;;9.93;;
29730;SDS011;16639;51.488;0.152;2023-10-13T04:45:31;24.55;;;11.02;;
29730;SDS011;16639;51.488;0.152;2023-10-13T04:47:59;40.20;;;10.60;;
29730;SDS011;16639;51.488;0.152;2023-10-13T04:50:46;32.67;;;10.15;;
29730;SDS011;16639;51.488;0.152;2023-10-13T04:53:14;36.47;;;10.48;;
29730;SDS011;16639;51.488;0.152;2023-10-13T04:56:12;32.95;;;11.50;;
29730;SDS011;16639;51.488;0.152;2023-10-13T04:58:58;28.58;;;11.95;;
29730;SDS011;16639;51.488;0.152;2023-10-13T05:01:44;31.55;;;10.90;;
29730;SDS011;16639;51.488;0.152;2023-10-13T05:04:24;29.35;;;10.52;;
29730;SDS011;16639;51.488;0.152;2023-10-13T05:07:05;34.08;;;11.57;;
29730;SDS011;16639;51.488;0.152;2023-10-13T05:09:51;36.33;;;12.13;;
29730;SDS011;16639;51.488;0.152;2023-10-13T05:12:42;35.13;;;11.65;;
29730;SDS011;16639;51.488;0.152;2023-10-13T05:15:28;38.67;;;12.13;;
29730;SDS011;16639;51.488;0.152;2023-10-13T05:18:15;27.05;;;11.38;;
29730;SDS011;16639;51.488;0.152;2023-10-13T05:21:01;24.08;;;10.27;;
29730;SDS011;16639;51.488;0.152;2023-10-13T05:23:47;34.80;;;12.00;;
29730;SDS011;16639;51.488;0.152;2023-10-13T05:26:33;41.58;;;12.27;;
29730;SDS011;16639;51.488;0.152;2023-10-13T05:29:19;26.20;;;11.15;;
29730;SDS011;16639;51.488;0.152;2023-10-13T05:32:05;30.00;;;10.93;;
29730;SDS011;16639;51.488;0.152;2023-10-13T05:34:51;31.45;;;10.80;;
29730;SDS011;16639;51.488;0.152;2023-10-13T05:37:37;22.10;;;11.07;;
29730;SDS011;16639;51.488;0.152;2023-10-13T05:40:23;28.47;;;10.90;;
29730;SDS011;16639;51.488;0.152;2023-10-13T05:43:10;40.15;;;12.52;;
29730;SDS011;16639;51.488;0.152;2023-10-13T05:46:00;39.20;;;11.98;;
29730;SDS011;16639;51.488;0.152;2023-10-13T05:48:48;27.40;;;11.15;;
29730;SDS011;16639;51.488;0.152;2023-10-13T05:51:27;44.63;;;12.43;;
29730;SDS011;16639;51.488;0.152;2023-10-13T05:54:02;38.90;;;11.13;;
29730;SDS011;16639;51.488;0.152;2023-10-13T05:56:56;34.60;;;11.65;;
29730;SDS011;16639;51.488;0.152;2023-10-13T05:59:42;43.63;;;11.63;;
29730;SDS011;16639;51.488;0.152;2023-10-13T06:02:28;44.15;;;11.88;;
29730;SDS011;16639;51.488;0.152;2023-10-13T06:05:14;25.10;;;10.65;;
29730;SDS011;16639;51.488;0.152;2023-10-13T06:08:01;44.88;;;12.70;;
29730;SDS011;16639;51.488;0.152;2023-10-13T06:10:47;31.88;;;11.30;;
29730;SDS011;16639;51.488;0.152;2023-10-13T06:16:20;34.35;;;12.18;;
29730;SDS011;16639;51.488;0.152;2023-10-13T06:19:06;37.65;;;11.02;;
29730;SDS011;16639;51.488;0.152;2023-10-13T06:21:52;50.20;;;12.10;;
29730;SDS011;16639;51.488;0.152;2023-10-13T06:24:38;35.80;;;11.07;;
29730;SDS011;16639;51.488;0.152;2023-10-13T06:27:24;30.98;;;9.73;;
29730;SDS011;16639;51.488;0.152;2023-10-13T06:30:11;38.20;;;13.02;;
29730;SDS011;16639;51.488;0.152;2023-10-13T06:32:39;40.72;;;12.38;;
29730;SDS011;16639;51.488;0.152;2023-10-13T06:35:07;47.15;;;12.82;;
29730;SDS011;16639;51.488;0.152;2023-10-13T06:37:34;47.60;;;12.55;;
29730;SDS011;16639;51.488;0.152;2023-10-13T06:40:09;34.85;;;10.48;;
29730;SDS011;16639;51.488;0.152;2023-10-13T06:42:48;39.42;;;10.32;;
29730;SDS011;16639;51.488;0.152;2023-10-13T06:45:16;40.78;;;10.70;;
29730;SDS011;16639;51.488;0.152;2023-10-13T06:47:44;35.53;;;10.20;;
29730;SDS011;16639;51.488;0.152;2023-10-13T06:50:12;41.25;;;13.10;;
29730;SDS011;16639;51.488;0.152;2023-10-13T06:52:43;43.47;;;12.23;;
29730;SDS011;16639;51.488;0.152;2023-10-13T06:55:12;45.92;;;11.48;;
29730;SDS011;16639;51.488;0.152;2023-10-13T06:57:50;42.95;;;12.73;;
29730;SDS011;16639;51.488;0.152;2023-10-13T07:00:18;38.45;;;12.35;;
29730;SDS011;16639;51.488;0.152;2023-10-13T07:03:01;39.40;;;11.60;;
29730;SDS011;16639;51.488;0.152;2023-10-13T07:05:48;39.90;;;10.82;;
29730;SDS011;16639;51.488;0.152;2023-10-13T07:08:16;29.50;;;10.68;;
29730;SDS011;16639;51.488;0.152;2023-10-13T07:10:53;40.03;;;11.27;;
29730;SDS011;16639;51.488;0.152;2023-10-13T07:13:40;41.05;;;11.70;;
29730;SDS011;16639;51.488;0.152;2023-10-13T07:16:14;38.42;;;12.02;;
29730;SDS011;16639;51.488;0.152;2023-10-13T07:18:54;34.03;;;10.85;;
29730;SDS011;16639;51.488;0.152;2023-10-13T07:21:22;39.85;;;12.18;;
29730;SDS011;16639;51.488;0.152;2023-10-13T07:23:58;37.95;;;12.00;;
29730;SDS011;16639;51.488;0.152;2023-10-13T07:26:35;36.28;;;12.40;;
29730;SDS011;16639;51.488;0.152;2023-10-13T07:29:10;50.53;;;13.77;;
29730;SDS011;16639;51.488;0.152;2023-10-13T07:31:38;35.30;;;11.40;;
29730;SDS011;16639;51.488;0.152;2023-10-13T07:34:12;43.00;;;11.85;;
29730;SDS011;16639;51.488;0.152;2023-10-13T07:36:50;37.97;;;11.60;;
29730;SDS011;16639;51.488;0.152;2023-10-13T07:39:30;32.78;;;11.05;;
29730;SDS011;16639;51.488;0.152;2023-10-13T07:42:02;35.35;;;10.88;;
29730;SDS011;16639;51.488;0.152;2023-10-13T07:44:35;44.10;;;11.85;;
29730;SDS011;16639;51.488;0.152;2023-10-13T07:47:03;35.53;;;10.27;;
29730;SDS011;16639;51.488;0.152;2023-10-13T07:49:32;37.20;;;11.73;;
29730;SDS011;16639;51.488;0.152;2023-10-13T07:52:05;34.60;;;11.52;;
29730;SDS011;16639;51.488;0.152;2023-10-13T07:54:57;40.58;;;11.15;;
29730;SDS011;16639;51.488;0.152;2023-10-13T07:57:51;33.78;;;12.00;;
29730;SDS011;16639;51.488;0.152;2023-10-13T08:00:22;25.75;;;9.95;;
29730;SDS011;16639;51.488;0.152;2023-10-13T08:03:14;25.75;;;11.63;;
29730;SDS011;16639;51.488;0.152;2023-10-13T08:05:42;37.28;;;11.93;;
29730;SDS011;16639;51.488;0.152;2023-10-13T08:08:34;30.20;;;12.05;;
29730;SDS011;16639;51.488;0.152;2023-10-13T08:11:05;38.90;;;12.27;;
29730;SDS011;16639;51.488;0.152;2023-10-13T08:14:12;42.38;;;11.63;;
29730;SDS011;16639;51.488;0.152;2023-10-13T08:17:00;38.95;;;11.43;;
29730;SDS011;16639;51.488;0.152;2023-10-13T08:19:29;35.80;;;11.60;;
29730;SDS011;16639;51.488;0.152;2023-10-13T08:22:13;29.35;;;12.35;;
29730;SDS011;16639;51.488;0.152;2023-10-13T08:24:47;35.72;;;12.27;;
29730;SDS011;16639;51.488;0.152;2023-10-13T08:27:19;26.30;;;11.65;;
29730;SDS011;16639;51.488;0.152;2023-10-13T08:30:06;28.08;;;10.25;;
29730;SDS011;16639;51.488;0.152;2023-10-13T08:32:53;33.95;;;11.95;;
29730;SDS011;16639;51.488;0.152;2023-10-13T08:35:21;29.40;;;11.85;;
29730;SDS011;16639;51.488;0.152;2023-10-13T08:38:01;33.20;;;11.65;;
29730;SDS011;16639;51.488;0.152;2023-10-13T08:40:57;22.98;;;11.75;;
29730;SDS011;16639;51.488;0.152;2023-10-13T08:43:44;27.25;;;12.48;;
29730;SDS011;16639;51.488;0.152;2023-10-13T08:46:19;24.98;;;10.40;;
29730;SDS011;16639;51.488;0.152;2023-10-13T08:48:57;24.95;;;10.55;;
29730;SDS011;16639;51.488;0.152;2023-10-13T08:51:52;23.20;;;10.13;;
29730;SDS011;16639;51.488;0.152;2023-10-13T08:54:35;32.47;;;10.93;;
29730;SDS011;16639;51.488;0.152;2023-10-13T08:57:12;23.58;;;10.90;;
29730;SDS011;16639;51.488;0.152;2023-10-13T08:59:58;28.35;;;11.43;;
29730;SDS011;16639;51.488;0.152;2023-10-13T09:02:46;30.45;;;11.27;;
29730;SDS011;16639;51.488;0.152;2023-10-13T09:05:48;25.83;;;11.05;;
29730;SDS011;16639;51.488;0.152;2023-10-13T09:08:29;35.45;;;10.02;;
29730;SDS011;16639;51.488;0.152;2023-10-13T09:11:03;27.75;;;11.48;;
29730;SDS011;16639;51.488;0.152;2023-10-13T09:13:39;26.25;;;11.13;;
29730;SDS011;16639;51.488;0.152;2023-10-13T09:16:13;19.88;;;12.13;;
29730;SDS011;16639;51.488;0.152;2023-10-13T09:18:49;27.65;;;10.85;;
29730;SDS011;16639;51.488;0.152;2023-10-13T09:21:19;27.02;;;11.23;;
29730;SDS011;16639;51.488;0.152;2023-10-13T09:24:13;31.75;;;11.18;;
29730;SDS011;16639;51.488;0.152;2023-10-13T09:26:58;24.73;;;9.75;;
29730;SDS011;16639;51.488;0.152;2023-10-13T09:29:28;26.95;;;8.27;;
29730;SDS011;16639;51.488;0.152;2023-10-13T09:32:02;22.67;;;9.23;;
29730;SDS011;16639;51.488;0.152;2023-10-13T09:34:31;19.33;;;9.10;;
29730;SDS011;16639;51.488;0.152;2023-10-13T09:37:02;20.58;;;8.35;;
29730;SDS011;16639;51.488;0.152;2023-10-13T09:39:30;20.67;;;9.73;;
29730;SDS011;16639;51.488;0.152;2023-10-13T09:42:14;23.60;;;9.93;;
29730;SDS011;16639;51.488;0.152;2023-10-13T09:44:45;17.58;;;8.80;;
29730;SDS011;16639;51.488;0.152;2023-10-13T09:47:23;25.13;;;10.23;;
29730;SDS011;16639;51.488;0.152;2023-10-13T09:50:01;20.63;;;9.83;;
29730;SDS011;16639;51.488;0.152;2023-10-13T09:52:33;23.40;;;9.90;;
29730;SDS011;16639;51.488;0.152;2023-10-13T09:55:26;19.95;;;9.27;;
29730;SDS011;16639;51.488;0.152;2023-10-13T09:58:06;20.80;;;8.02;;
29730;SDS011;16639;51.488;0.152;2023-10-13T10:00:47;17.65;;;8.80;;
29730;SDS011;16639;51.488;0.152;2023-10-13T10:03:44;25.55;;;8.93;;
29730;SDS011;16639;51.488;0.152;2023-10-13T10:06:21;18.38;;;8.30;;
29730;SDS011;16639;51.488;0.152;2023-10-13T10:09:08;17.00;;;7.78;;
29730;SDS011;16639;51.488;0.152;2023-10-13T10:14:41;20.95;;;6.72;;
29730;SDS011;16639;51.488;0.152;2023-10-13T10:17:39;11.57;;;6.68;;
29730;SDS011;16639;51.488;0.152;2023-10-13T10:20:09;17.90;;;6.63;;
29730;SDS011;16639;51.488;0.152;2023-10-13T10:22:56;11.93;;;6.40;;
29730;SDS011;16639;51.488;0.152;2023-10-13T10:25:33;10.88;;;6.78;;
29730;SDS011;16639;51.488;0.152;2023-10-13T10:28:05;8.77;;;6.07;;
29730;SDS011;16639;51.488;0.152;2023-10-13T10:30:35;11.70;;;6.40;;
29730;SDS011;16639;51.488;0.152;2023-10-13T10:33:05;19.50;;;7.07;;
29730;SDS011;16639;51.488;0.152;2023-10-13T10:35:39;13.73;;;6.30;;
29730;SDS011;16639;51.488;0.152;2023-10-13T10:38:12;10.90;;;6.00;;
29730;SDS011;16639;51.488;0.152;2023-10-13T10:40:56;15.63;;;7.07;;
29730;SDS011;16639;51.488;0.152;2023-10-13T10:46:28;12.77;;;5.85;;
29730;SDS011;16639;51.488;0.152;2023-10-13T10:49:05;16.45;;;6.78;;
29730;SDS011;16639;51.488;0.152;2023-10-13T10:51:41;12.57;;;6.90;;
29730;SDS011;16639;51.488;0.152;2023-10-13T10:54:18;14.27;;;7.35;;
29730;SDS011;16639;51.488;0.152;2023-10-13T10:56:46;17.10;;;7.68;;
29730;SDS011;16639;51.488;0.152;2023-10-13T10:59:19;18.52;;;7.32;;
29730;SDS011;16639;51.488;0.152;2023-10-13T11:01:51;20.25;;;7.90;;
29730;SDS011;16639;51.488;0.152;2023-10-13T11:04:19;25.10;;;7.85;;
29730;SDS011;16639;51.488;0.152;2023-10-13T11:06:51;21.25;;;8.20;;
29730;SDS011;16639;51.488;0.152;2023-10-13T11:09:28;18.08;;;8.98;;
29730;SDS011;16639;51.488;0.152;2023-10-13T11:12:13;19.70;;;9.05;;
29730;SDS011;16639;51.488;0.152;2023-10-13T11:15:27;25.10;;;7.65;;
29730;SDS011;16639;51.488;0.152;2023-10-13T11:17:53;17.65;;;8.05;;
29730;SDS011;16639;51.488;0.152;2023-10-13T11:20:25;16.90;;;8.32;;
29730;SDS011;16639;51.488;0.152;2023-10-13T11:22:53;16.92;;;7.85;;
29730;SDS011;16639;51.488;0.152;2023-10-13T11:25:21;25.25;;;8.70;;
29730;SDS011;16639;51.488;0.152;2023-10-13T11:27:50;26.88;;;8.30;;
29730;SDS011;16639;51.488;0.152;2023-10-13T11:30:18;26.85;;;8.43;;
29730;SDS011;16639;51.488;0.152;2023-10-13T11:32:59;31.85;;;9.18;;
29730;SDS011;16639;51.488;0.152;2023-10-13T11:35:26;20.40;;;9.05;;
29730;SDS011;16639;51.488;0.152;2023-10-13T11:38:15;19.98;;;8.50;;
29730;SDS011;16639;51.488;0.152;2023-10-13T11:40:52;23.48;;;10.10;;
29730;SDS011;16639;51.488;0.152;2023-10-13T11:43:32;24.77;;;9.68;;
29730;SDS011;16639;51.488;0.152;2023-10-13T11:46:10;26.75;;;9.75;;
29730;SDS011;16639;51.488;0.152;2023-10-13T11:48:46;29.55;;;10.18;;
29730;SDS011;16639;51.488;0.152;2023-10-13T11:51:14;23.42;;;8.82;;
29730;SDS011;16639;51.488;0.152;2023-10-13T11:53:45;26.98;;;10.50;;
29730;SDS011;16639;51.488;0.152;2023-10-13T11:56:14;34.72;;;9.00;;
29730;SDS011;16639;51.488;0.152;2023-10-13T11:58:44;29.70;;;9.88;;
29730;SDS011;16639;51.488;0.152;2023-10-13T12:01:13;33.33;;;8.77;;
29730;SDS011;16639;51.488;0.152;2023-10-13T12:03:50;26.73;;;9.65;;
29730;SDS011;16639;51.488;0.152;2023-10-13T12:06:36;28.55;;;9.32;;
29730;SDS011;16639;51.488;0.152;2023-10-13T12:09:04;26.60;;;8.90;;
29730;SDS011;16639;51.488;0.152;2023-10-13T12:11:58;28.70;;;8.10;;
29730;SDS011;16639;51.488;0.152;2023-10-13T12:14:27;23.77;;;7.82;;
29730;SDS011;16639;51.488;0.152;2023-10-13T12:16:56;43.63;;;7.80;;
29730;SDS011;16639;51.488;0.152;2023-10-13T12:19:33;25.75;;;6.35;;
29730;SDS011;16639;51.488;0.152;2023-10-13T12:22:02;22.52;;;6.25;;
29730;SDS011;16639;51.488;0.152;2023-10-13T12:24:35;24.83;;;6.10;;
29730;SDS011;16639;51.488;0.152;2023-10-13T12:27:03;28.50;;;6.13;;
29730;SDS011;16639;51.488;0.152;2023-10-13T12:29:47;21.00;;;5.97;;
29730;SDS011;16639;51.488;0.152;2023-10-13T12:32:15;25.48;;;7.05;;
29730;SDS011;16639;51.488;0.152;2023-10-13T12:34:49;27.20;;;5.95;;
29730;SDS011;16639;51.488;0.152;2023-10-13T12:37:29;20.63;;;6.40;;
29730;SDS011;16639;51.488;0.152;2023-10-13T12:40:16;19.52;;;6.10;;
29730;SDS011;16639;51.488;0.152;2023-10-13T12:43:04;25.15;;;5.43;;
29730;SDS011;16639;51.488;0.152;2023-10-13T12:48:37;26.33;;;5.78;;
29730;SDS011;16639;51.488;0.152;2023-10-13T12:51:25;29.00;;;8.48;;
29730;SDS011;16639;51.488;0.152;2023-10-13T12:53:58;24.35;;;5.20;;
29730;SDS011;16639;51.488;0.152;2023-10-13T12:56:50;25.55;;;5.40;;
29730;SDS011;16639;51.488;0.152;2023-10-13T12:59:24;40.95;;;8.30;;
29730;SDS011;16639;51.488;0.152;2023-10-13T13:01:53;33.22;;;7.28;;
29730;SDS011;16639;51.488;0.152;2023-10-13T13:04:21;21.23;;;5.22;;
29730;SDS011;16639;51.488;0.152;2023-10-13T13:06:49;19.85;;;5.07;;
29730;SDS011;16639;51.488;0.152;2023-10-13T13:09:17;23.42;;;7.10;;
29730;SDS011;16639;51.488;0.152;2023-10-13T13:11:53;20.77;;;6.70;;
29730;SDS011;16639;51.488;0.152;2023-10-13T13:14:25;19.02;;;5.07;;
29730;SDS011;16639;51.488;0.152;2023-10-13T13:17:00;26.67;;;6.07;;
29730;SDS011;16639;51.488;0.152;2023-10-13T13:19:35;28.33;;;5.60;;
29730;SDS011;16639;51.488;0.152;2023-10-13T13:22:06;26.20;;;5.35;;
29730;SDS011;16639;51.488;0.152;2023-10-13T13:24:41;23.48;;;5.20;;
29730;SDS011;16639;51.488;0.152;2023-10-13T13:27:12;23.75;;;5.97;;
29730;SDS011;16639;51.488;0.152;2023-10-13T13:29:41;21.70;;;5.78;;
29730;SDS011;16639;51.488;0.152;2023-10-13T13:32:09;20.42;;;4.93;;
29730;SDS011;16639;51.488;0.152;2023-10-13T13:34:51;18.85;;;5.82;;
29730;SDS011;16639;51.488;0.152;2023-10-13T13:37:31;27.80;;;5.00;;
29730;SDS011;16639;51.488;0.152;2023-10-13T13:39:58;24.90;;;5.35;;
29730;SDS011;16639;51.488;0.152;2023-10-13T13:42:48;20.15;;;3.90;;
29730;SDS011;16639;51.488;0.152;2023-10-13T13:45:16;12.38;;;3.90;;
29730;SDS011;16639;51.488;0.152;2023-10-13T13:47:58;14.63;;;3.80;;
29730;SDS011;16639;51.488;0.152;2023-10-13T13:50:27;20.08;;;4.35;;
29730;SDS011;16639;51.488;0.152;2023-10-13T13:52:59;19.08;;;3.95;;
29730;SDS011;16639;51.488;0.152;2023-10-13T13:55:27;14.68;;;3.95;;
29730;SDS011;16639;51.488;0.152;2023-10-13T13:57:58;15.02;;;3.47;;
29730;SDS011;16639;51.488;0.152;2023-10-13T14:00:25;18.00;;;3.85;;
29730;SDS011;16639;51.488;0.152;2023-10-13T14:03:07;12.20;;;3.70;;
29730;SDS011;16639;51.488;0.152;2023-10-13T14:05:54;17.55;;;3.33;;
29730;SDS011;16639;51.488;0.152;2023-10-13T14:08:22;17.30;;;4.05;;
29730;SDS011;16639;51.488;0.152;2023-10-13T14:10:49;17.65;;;4.82;;
29730;SDS011;16639;51.488;0.152;2023-10-13T14:13:35;12.18;;;2.70;;
29730;SDS011;16639;51.488;0.152;2023-10-13T14:16:16;22.02;;;3.10;;
29730;SDS011;16639;51.488;0.152;2023-10-13T14:18:47;17.13;;;3.45;;
29730;SDS011;16639;51.488;0.152;2023-10-13T14:21:16;21.73;;;5.05;;
29730;SDS011;16639;51.488;0.152;2023-10-13T14:23:45;18.50;;;4.03;;
29730;SDS011;16639;51.488;0.152;2023-10-13T14:26:14;18.60;;;4.72;;
29730;SDS011;16639;51.488;0.152;2023-10-13T14:28:53;12.57;;;3.88;;
29730;SDS011;16639;51.488;0.152;2023-10-13T14:31:36;23.33;;;3.03;;
29730;SDS011;16639;51.488;0.152;2023-10-13T14:34:04;14.43;;;4.03;;
29730;SDS011;16639;51.488;0.152;2023-10-13T14:36:31;21.98;;;3.83;;
29730;SDS011;16639;51.488;0.152;2023-10-13T14:39:02;17.85;;;3.72;;
29730;SDS011;16639;51.488;0.152;2023-10-13T14:41:36;12.98;;;3.28;;
29730;SDS011;16639;51.488;0.152;2023-10-13T14:44:07;8.43;;;2.83;;
29730;SDS011;16639;51.488;0.152;2023-10-13T14:46:34;12.18;;;3.40;;
29730;SDS011;16639;51.488;0.152;2023-10-13T14:49:03;13.30;;;3.60;;
29730;SDS011;16639;51.488;0.152;2023-10-13T14:51:30;16.40;;;3.05;;
29730;SDS011;16639;51.488;0.152;2023-10-13T14:53:58;11.88;;;3.38;;
29730;SDS011;16639;51.488;0.152;2023-10-13T14:56:26;11.40;;;2.92;;
29730;SDS011;16639;51.488;0.152;2023-10-13T14:58:54;16.27;;;3.03;;
29730;SDS011;16639;51.488;0.152;2023-10-13T15:01:22;11.60;;;2.85;;
29730;SDS011;16639;51.488;0.152;2023-10-13T15:03:54;13.57;;;3.35;;
29730;SDS011;16639;51.488;0.152;2023-10-13T15:06:26;18.70;;;3.38;;
29730;SDS011;16639;51.488;0.152;2023-10-13T15:08:56;16.35;;;2.42;;
29730;SDS011;16639;51.488;0.152;2023-10-13T15:11:25;13.35;;;3.70;;
29730;SDS011;16639;51.488;0.152;2023-10-13T15:13:54;16.92;;;3.15;;
29730;SDS011;16639;51.488;0.152;2023-10-13T15:16:23;11.25;;;3.10;;
29730;SDS011;16639;51.488;0.152;2023-10-13T15:18:54;15.88;;;3.97;;
29730;SDS011;16639;51.488;0.152;2023-10-13T15:21:22;20.13;;;3.20;;
29730;SDS011;16639;51.488;0.152;2023-10-13T15:23:53;13.52;;;3.47;;
29730;SDS011;16639;51.488;0.152;2023-10-13T15:26:25;11.68;;;3.58;;
29730;SDS011;16639;51.488;0.152;2023-10-13T15:28:54;15.50;;;3.45;;
29730;SDS011;16639;51.488;0.152;2023-10-13T15:31:22;15.52;;;3.15;;
29730;SDS011;16639;51.488;0.152;2023-10-13T15:33:55;15.48;;;3.13;;
29730;SDS011;16639;51.488;0.152;2023-10-13T15:36:22;25.58;;;5.30;;
29730;SDS011;16639;51.488;0.152;2023-10-13T15:38:50;17.48;;;4.22;;